sensor_id;sensor_type;location;lat;lon;timestamp;P1;durP1;ratioP1;P2;durP2;ratioP2
19836;SDS011;10079;55.740;37.662;2023-05-18T00:01:41;17.60;;;11.03;;
19836;SDS011;10079;55.740;37.662;2023-05-18T00:04:44;20.97;;;10.47;;
19836;SDS011;10079;55.740;37.662;2023-05-18T00:07:47;24.83;;;11.23;;
19836;SDS011;10079;55.740;37.662;2023-05-18T00:10:50;21.40;;;10.47;;
19836;SDS011;10079;55.740;37.662;2023-05-18T00:13:53;21.67;;;10.63;;
19836;SDS011;10079;55.740;37.662;2023-05-18T00:16:58;14.37;;;9.90;;
19836;SDS011;10079;55.740;37.662;2023-05-18T00:20:05;17.20;;;10.30;;
19836;SDS011;10079;55.740;37.662;2023-05-18T00:23:11;19.07;;;10.60;;
19836;SDS011;10079;55.740;37.662;2023-05-18T00:26:14;18.23;;;10.00;;
19836;SDS011;10079;55.740;37.662;2023-05-18T00:29:20;19.07;;;10.53;;
19836;SDS011;10079;55.740;37.662;2023-05-18T00:32:24;17.47;;;10.30;;
19836;SDS011;10079;55.740;37.662;2023-05-18T00:35:26;17.33;;;9.30;;
19836;SDS011;10079;55.740;37.662;2023-05-18T00:38:30;17.77;;;10.67;;
19836;SDS011;10079;55.740;37.662;2023-05-18T00:41:45;16.60;;;8.70;;
19836;SDS011;10079;55.740;37.662;2023-05-18T00:44:48;18.13;;;9.40;;
19836;SDS011;10079;55.740;37.662;2023-05-18T00:47:51;19.90;;;10.03;;
19836;SDS011;10079;55.740;37.662;2023-05-18T00:50:53;17.00;;;9.87;;
19836;SDS011;10079;55.740;37.662;2023-05-18T00:53:57;26.40;;;10.33;;
19836;SDS011;10079;55.740;37.662;2023-05-18T00:57:00;20.93;;;11.00;;
19836;SDS011;10079;55.740;37.662;2023-05-18T01:00:06;28.60;;;10.50;;
19836;SDS011;10079;55.740;37.662;2023-05-18T01:03:09;20.07;;;10.60;;
19836;SDS011;10079;55.740;37.662;2023-05-18T01:06:16;20.13;;;11.87;;
19836;SDS011;10079;55.740;37.662;2023-05-18T01:09:22;19.13;;;10.77;;
19836;SDS011;10079;55.740;37.662;2023-05-18T01:12:28;18.93;;;9.97;;
19836;SDS011;10079;55.740;37.662;2023-05-18T01:15:33;18.60;;;10.33;;
19836;SDS011;10079;55.740;37.662;2023-05-18T01:18:43;19.93;;;11.10;;
19836;SDS011;10079;55.740;37.662;2023-05-18T01:21:55;23.17;;;10.37;;
19836;SDS011;10079;55.740;37.662;2023-05-18T01:25:02;21.40;;;10.27;;
19836;SDS011;10079;55.740;37.662;2023-05-18T01:28:13;21.53;;;10.67;;
19836;SDS011;10079;55.740;37.662;2023-05-18T01:31:25;18.80;;;10.07;;
19836;SDS011;10079;55.740;37.662;2023-05-18T01:34:39;21.10;;;10.20;;
19836;SDS011;10079;55.740;37.662;2023-05-18T01:37:54;18.80;;;10.37;;
19836;SDS011;10079;55.740;37.662;2023-05-18T01:41:04;17.33;;;9.80;;
19836;SDS011;10079;55.740;37.662;2023-05-18T01:44:18;16.40;;;9.73;;
19836;SDS011;10079;55.740;37.662;2023-05-18T01:47:34;20.97;;;10.47;;
19836;SDS011;10079;55.740;37.662;2023-05-18T01:50:48;16.50;;;10.27;;
19836;SDS011;10079;55.740;37.662;2023-05-18T01:54:04;19.27;;;10.80;;
19836;SDS011;10079;55.740;37.662;2023-05-18T01:57:09;16.23;;;10.53;;
19836;SDS011;10079;55.740;37.662;2023-05-18T02:00:13;17.43;;;10.40;;
19836;SDS011;10079;55.740;37.662;2023-05-18T02:03:15;21.23;;;10.50;;
19836;SDS011;10079;55.740;37.662;2023-05-18T02:06:21;16.03;;;9.87;;
19836;SDS011;10079;55.740;37.662;2023-05-18T02:20:15;19.90;;;10.83;;
19836;SDS011;10079;55.740;37.662;2023-05-18T02:23:21;18.73;;;10.63;;
19836;SDS011;10079;55.740;37.662;2023-05-18T02:26:24;17.23;;;10.83;;
19836;SDS011;10079;55.740;37.662;2023-05-18T02:29:27;16.97;;;10.13;;
19836;SDS011;10079;55.740;37.662;2023-05-18T02:32:30;19.40;;;10.20;;
19836;SDS011;10079;55.740;37.662;2023-05-18T02:35:36;21.27;;;11.50;;
19836;SDS011;10079;55.740;37.662;2023-05-18T02:38:42;20.30;;;10.53;;
19836;SDS011;10079;55.740;37.662;2023-05-18T02:41:49;18.93;;;11.50;;
19836;SDS011;10079;55.740;37.662;2023-05-18T02:44:55;23.43;;;11.53;;
19836;SDS011;10079;55.740;37.662;2023-05-18T02:48:01;23.40;;;11.57;;
19836;SDS011;10079;55.740;37.662;2023-05-18T02:51:08;21.40;;;11.50;;
19836;SDS011;10079;55.740;37.662;2023-05-18T02:54:19;22.20;;;11.70;;
19836;SDS011;10079;55.740;37.662;2023-05-18T02:57:23;22.30;;;10.97;;
19836;SDS011;10079;55.740;37.662;2023-05-18T03:00:25;26.00;;;12.43;;
19836;SDS011;10079;55.740;37.662;2023-05-18T03:03:29;22.47;;;12.30;;
19836;SDS011;10079;55.740;37.662;2023-05-18T03:06:44;24.87;;;12.47;;
19836;SDS011;10079;55.740;37.662;2023-05-18T03:09:46;26.83;;;13.10;;
19836;SDS011;10079;55.740;37.662;2023-05-18T03:12:54;31.77;;;13.80;;
19836;SDS011;10079;55.740;37.662;2023-05-18T03:15:59;20.33;;;11.80;;
19836;SDS011;10079;55.740;37.662;2023-05-18T03:19:13;21.80;;;12.43;;
19836;SDS011;10079;55.740;37.662;2023-05-18T03:22:20;28.33;;;12.70;;
19836;SDS011;10079;55.740;37.662;2023-05-18T03:25:23;27.80;;;13.23;;
19836;SDS011;10079;55.740;37.662;2023-05-18T03:28:27;31.07;;;13.90;;
19836;SDS011;10079;55.740;37.662;2023-05-18T03:31:29;20.43;;;13.07;;
19836;SDS011;10079;55.740;37.662;2023-05-18T03:34:32;28.37;;;14.23;;
19836;SDS011;10079;55.740;37.662;2023-05-18T03:37:38;24.77;;;13.52;;
19836;SDS011;10079;55.740;37.662;2023-05-18T03:40:42;25.90;;;13.50;;
19836;SDS011;10079;55.740;37.662;2023-05-18T03:43:45;20.52;;;13.52;;
19836;SDS011;10079;55.740;37.662;2023-05-18T03:46:49;26.08;;;14.57;;
19836;SDS011;10079;55.740;37.662;2023-05-18T03:49:51;21.95;;;14.00;;
19836;SDS011;10079;55.740;37.662;2023-05-18T03:52:54;25.45;;;13.48;;
19836;SDS011;10079;55.740;37.662;2023-05-18T03:56:00;20.67;;;12.27;;
19836;SDS011;10079;55.740;37.662;2023-05-18T03:59:15;25.20;;;12.73;;
19836;SDS011;10079;55.740;37.662;2023-05-18T04:02:30;18.85;;;12.63;;
19836;SDS011;10079;55.740;37.662;2023-05-18T04:19:28;20.90;;;12.88;;
19836;SDS011;10079;55.740;37.662;2023-05-18T04:22:31;15.02;;;11.50;;
19836;SDS011;10079;55.740;37.662;2023-05-18T04:25:48;19.42;;;10.48;;
19836;SDS011;10079;55.740;37.662;2023-05-18T04:28:54;19.67;;;11.23;;
19836;SDS011;10079;55.740;37.662;2023-05-18T04:32:05;23.33;;;11.40;;
19836;SDS011;10079;55.740;37.662;2023-05-18T04:35:09;19.80;;;10.35;;
19836;SDS011;10079;55.740;37.662;2023-05-18T04:38:11;12.43;;;9.43;;
19836;SDS011;10079;55.740;37.662;2023-05-18T04:41:18;14.25;;;7.55;;
19836;SDS011;10079;55.740;37.662;2023-05-18T04:44:34;15.65;;;9.43;;
19836;SDS011;10079;55.740;37.662;2023-05-18T04:47:39;15.27;;;9.60;;
19836;SDS011;10079;55.740;37.662;2023-05-18T04:50:43;18.42;;;10.65;;
19836;SDS011;10079;55.740;37.662;2023-05-18T04:53:58;13.32;;;9.50;;
19836;SDS011;10079;55.740;37.662;2023-05-18T04:57:03;15.32;;;9.55;;
19836;SDS011;10079;55.740;37.662;2023-05-18T05:00:10;13.07;;;9.63;;
19836;SDS011;10079;55.740;37.662;2023-05-18T05:03:16;13.77;;;9.63;;
19836;SDS011;10079;55.740;37.662;2023-05-18T05:13:26;13.57;;;8.15;;
19836;SDS011;10079;55.740;37.662;2023-05-18T05:16:29;12.68;;;8.70;;
19836;SDS011;10079;55.740;37.662;2023-05-18T05:19:32;14.00;;;8.23;;
19836;SDS011;10079;55.740;37.662;2023-05-18T05:22:35;12.75;;;7.30;;
19836;SDS011;10079;55.740;37.662;2023-05-18T05:25:41;13.35;;;7.25;;
19836;SDS011;10079;55.740;37.662;2023-05-18T05:28:47;9.60;;;6.65;;
19836;SDS011;10079;55.740;37.662;2023-05-18T05:32:00;10.50;;;6.55;;
19836;SDS011;10079;55.740;37.662;2023-05-18T05:35:14;8.65;;;6.60;;
19836;SDS011;10079;55.740;37.662;2023-05-18T05:38:20;8.90;;;6.22;;
19836;SDS011;10079;55.740;37.662;2023-05-18T05:41:35;8.52;;;5.60;;
19836;SDS011;10079;55.740;37.662;2023-05-18T05:44:50;7.97;;;5.45;;
19836;SDS011;10079;55.740;37.662;2023-05-18T05:47:56;8.73;;;6.12;;
19836;SDS011;10079;55.740;37.662;2023-05-18T05:51:12;10.30;;;5.47;;
19836;SDS011;10079;55.740;37.662;2023-05-18T05:54:27;10.20;;;5.40;;
19836;SDS011;10079;55.740;37.662;2023-05-18T05:57:32;9.57;;;5.43;;
19836;SDS011;10079;55.740;37.662;2023-05-18T06:00:39;12.55;;;6.05;;
19836;SDS011;10079;55.740;37.662;2023-05-18T06:03:54;10.07;;;5.87;;
19836;SDS011;10079;55.740;37.662;2023-05-18T06:06:57;12.57;;;5.70;;
19836;SDS011;10079;55.740;37.662;2023-05-18T06:10:12;7.80;;;5.97;;
19836;SDS011;10079;55.740;37.662;2023-05-18T06:13:18;8.02;;;5.50;;
19836;SDS011;10079;55.740;37.662;2023-05-18T06:16:24;7.60;;;4.95;;
19836;SDS011;10079;55.740;37.662;2023-05-18T06:19:31;6.35;;;4.95;;
19836;SDS011;10079;55.740;37.662;2023-05-18T06:22:37;5.57;;;4.43;;
19836;SDS011;10079;55.740;37.662;2023-05-18T06:25:43;4.55;;;3.97;;
19836;SDS011;10079;55.740;37.662;2023-05-18T06:28:50;8.45;;;5.32;;
19836;SDS011;10079;55.740;37.662;2023-05-18T06:31:56;5.62;;;4.28;;
19836;SDS011;10079;55.740;37.662;2023-05-18T06:35:11;9.73;;;4.62;;
19836;SDS011;10079;55.740;37.662;2023-05-18T06:38:14;7.25;;;4.40;;
19836;SDS011;10079;55.740;37.662;2023-05-18T06:41:17;4.87;;;4.45;;
19836;SDS011;10079;55.740;37.662;2023-05-18T06:44:20;8.23;;;4.15;;
19836;SDS011;10079;55.740;37.662;2023-05-18T06:47:23;5.20;;;4.28;;
19836;SDS011;10079;55.740;37.662;2023-05-18T06:50:29;6.57;;;5.87;;
19836;SDS011;10079;55.740;37.662;2023-05-18T07:04:18;5.95;;;3.87;;
19836;SDS011;10079;55.740;37.662;2023-05-18T07:07:24;4.85;;;4.35;;
19836;SDS011;10079;55.740;37.662;2023-05-18T07:10:30;4.10;;;3.70;;
19836;SDS011;10079;55.740;37.662;2023-05-18T07:13:46;7.85;;;4.20;;
19836;SDS011;10079;55.740;37.662;2023-05-18T07:16:58;4.50;;;4.10;;
19836;SDS011;10079;55.740;37.662;2023-05-18T07:20:01;6.85;;;4.00;;
19836;SDS011;10079;55.740;37.662;2023-05-18T07:23:15;5.45;;;3.65;;
19836;SDS011;10079;55.740;37.662;2023-05-18T07:26:26;4.85;;;3.83;;
19836;SDS011;10079;55.740;37.662;2023-05-18T07:29:42;5.07;;;3.80;;
19836;SDS011;10079;55.740;37.662;2023-05-18T07:43:32;5.97;;;4.03;;
19836;SDS011;10079;55.740;37.662;2023-05-18T07:46:44;4.60;;;4.22;;
19836;SDS011;10079;55.740;37.662;2023-05-18T07:53:06;5.07;;;4.20;;
19836;SDS011;10079;55.740;37.662;2023-05-18T07:56:09;4.50;;;3.85;;
19836;SDS011;10079;55.740;37.662;2023-05-18T07:59:12;5.80;;;4.07;;
19836;SDS011;10079;55.740;37.662;2023-05-18T08:02:16;4.65;;;4.05;;
19836;SDS011;10079;55.740;37.662;2023-05-18T08:05:19;4.35;;;3.95;;
19836;SDS011;10079;55.740;37.662;2023-05-18T08:08:22;5.70;;;4.28;;
19836;SDS011;10079;55.740;37.662;2023-05-18T08:11:26;3.45;;;3.12;;
19836;SDS011;10079;55.740;37.662;2023-05-18T08:14:28;4.07;;;3.62;;
19836;SDS011;10079;55.740;37.662;2023-05-18T08:17:32;4.82;;;3.97;;
19836;SDS011;10079;55.740;37.662;2023-05-18T08:20:35;4.05;;;3.67;;
19836;SDS011;10079;55.740;37.662;2023-05-18T08:23:38;4.15;;;3.58;;
19836;SDS011;10079;55.740;37.662;2023-05-18T08:26:43;6.25;;;4.12;;
19836;SDS011;10079;55.740;37.662;2023-05-18T08:29:46;3.85;;;3.55;;
19836;SDS011;10079;55.740;37.662;2023-05-18T08:32:49;4.20;;;3.78;;
19836;SDS011;10079;55.740;37.662;2023-05-18T08:35:53;4.93;;;4.37;;
19836;SDS011;10079;55.740;37.662;2023-05-18T08:38:56;4.15;;;3.75;;
19836;SDS011;10079;55.740;37.662;2023-05-18T08:42:02;4.53;;;3.80;;
19836;SDS011;10079;55.740;37.662;2023-05-18T08:45:10;4.82;;;4.22;;
19836;SDS011;10079;55.740;37.662;2023-05-18T08:48:18;4.62;;;4.20;;
19836;SDS011;10079;55.740;37.662;2023-05-18T08:51:23;4.55;;;4.05;;
19836;SDS011;10079;55.740;37.662;2023-05-18T09:05:07;4.90;;;4.45;;
19836;SDS011;10079;55.740;37.662;2023-05-18T09:08:16;4.85;;;4.45;;
19836;SDS011;10079;55.740;37.662;2023-05-18T09:11:19;4.60;;;3.75;;
19836;SDS011;10079;55.740;37.662;2023-05-18T09:14:22;5.28;;;3.87;;
19836;SDS011;10079;55.740;37.662;2023-05-18T09:17:28;5.60;;;4.78;;
19836;SDS011;10079;55.740;37.662;2023-05-18T09:20:44;6.25;;;4.30;;
19836;SDS011;10079;55.740;37.662;2023-05-18T09:23:57;5.05;;;3.97;;
19836;SDS011;10079;55.740;37.662;2023-05-18T09:26:59;5.95;;;4.45;;
19836;SDS011;10079;55.740;37.662;2023-05-18T09:30:09;4.72;;;4.32;;
19836;SDS011;10079;55.740;37.662;2023-05-18T09:33:15;5.43;;;3.90;;
19836;SDS011;10079;55.740;37.662;2023-05-18T09:36:17;5.25;;;4.60;;
19836;SDS011;10079;55.740;37.662;2023-05-18T09:50:19;5.45;;;4.25;;
19836;SDS011;10079;55.740;37.662;2023-05-18T09:53:34;4.75;;;4.35;;
19836;SDS011;10079;55.740;37.662;2023-05-18T10:00:17;4.75;;;3.70;;
19836;SDS011;10079;55.740;37.662;2023-05-18T10:03:33;6.20;;;4.40;;
19836;SDS011;10079;55.740;37.662;2023-05-18T10:06:39;4.40;;;4.00;;
19836;SDS011;10079;55.740;37.662;2023-05-18T10:09:47;4.43;;;4.03;;
19836;SDS011;10079;55.740;37.662;2023-05-18T10:12:55;5.37;;;4.20;;
19836;SDS011;10079;55.740;37.662;2023-05-18T10:16:06;6.82;;;4.80;;
19836;SDS011;10079;55.740;37.662;2023-05-18T10:19:12;6.32;;;4.40;;
19836;SDS011;10079;55.740;37.662;2023-05-18T10:22:19;5.80;;;4.05;;
19836;SDS011;10079;55.740;37.662;2023-05-18T10:25:25;5.85;;;4.62;;
19836;SDS011;10079;55.740;37.662;2023-05-18T10:28:34;5.82;;;4.05;;
19836;SDS011;10079;55.740;37.662;2023-05-18T10:31:38;4.85;;;3.50;;
19836;SDS011;10079;55.740;37.662;2023-05-18T10:34:47;5.43;;;4.00;;
19836;SDS011;10079;55.740;37.662;2023-05-18T10:37:54;7.47;;;4.28;;
19836;SDS011;10079;55.740;37.662;2023-05-18T10:41:00;4.82;;;4.32;;
19836;SDS011;10079;55.740;37.662;2023-05-18T10:44:07;4.53;;;3.80;;
19836;SDS011;10079;55.740;37.662;2023-05-18T10:56:03;4.95;;;4.45;;
19836;SDS011;10079;55.740;37.662;2023-05-18T10:59:01;6.50;;;4.43;;
19836;SDS011;10079;55.740;37.662;2023-05-18T11:01:59;5.28;;;3.65;;
19836;SDS011;10079;55.740;37.662;2023-05-18T11:04:56;4.97;;;4.35;;
19836;SDS011;10079;55.740;37.662;2023-05-18T11:07:59;5.45;;;4.10;;
19836;SDS011;10079;55.740;37.662;2023-05-18T11:10:58;5.75;;;4.12;;
19836;SDS011;10079;55.740;37.662;2023-05-18T11:13:59;6.15;;;3.67;;
19836;SDS011;10079;55.740;37.662;2023-05-18T11:23:10;5.03;;;4.30;;
19836;SDS011;10079;55.740;37.662;2023-05-18T11:26:08;5.70;;;4.07;;
19836;SDS011;10079;55.740;37.662;2023-05-18T11:29:22;3.97;;;3.65;;
19836;SDS011;10079;55.740;37.662;2023-05-18T11:32:22;6.70;;;4.35;;
19836;SDS011;10079;55.740;37.662;2023-05-18T11:35:22;4.15;;;3.47;;
19836;SDS011;10079;55.740;37.662;2023-05-18T11:38:20;7.78;;;4.25;;
19836;SDS011;10079;55.740;37.662;2023-05-18T11:41:34;7.68;;;4.10;;
19836;SDS011;10079;55.740;37.662;2023-05-18T11:44:31;4.43;;;4.03;;
19836;SDS011;10079;55.740;37.662;2023-05-18T11:47:29;6.05;;;3.97;;
19836;SDS011;10079;55.740;37.662;2023-05-18T11:50:26;5.12;;;4.05;;
19836;SDS011;10079;55.740;37.662;2023-05-18T11:53:25;4.65;;;3.72;;
19836;SDS011;10079;55.740;37.662;2023-05-18T11:56:23;4.10;;;3.67;;
19836;SDS011;10079;55.740;37.662;2023-05-18T12:02:26;6.87;;;4.00;;
19836;SDS011;10079;55.740;37.662;2023-05-18T12:05:23;5.68;;;4.30;;
19836;SDS011;10079;55.740;37.662;2023-05-18T12:08:21;4.03;;;3.72;;
19836;SDS011;10079;55.740;37.662;2023-05-18T12:11:18;3.95;;;3.65;;
19836;SDS011;10079;55.740;37.662;2023-05-18T12:14:17;7.00;;;4.30;;
19836;SDS011;10079;55.740;37.662;2023-05-18T12:17:14;4.32;;;3.92;;
19836;SDS011;10079;55.740;37.662;2023-05-18T12:20:13;5.20;;;3.75;;
19836;SDS011;10079;55.740;37.662;2023-05-18T12:23:10;4.45;;;3.85;;
19836;SDS011;10079;55.740;37.662;2023-05-18T12:26:07;8.48;;;4.30;;
19836;SDS011;10079;55.740;37.662;2023-05-18T12:29:05;4.07;;;3.40;;
19836;SDS011;10079;55.740;37.662;2023-05-18T12:32:04;4.28;;;3.87;;
19836;SDS011;10079;55.740;37.662;2023-05-18T12:35:02;8.55;;;3.90;;
19836;SDS011;10079;55.740;37.662;2023-05-18T12:37:59;4.80;;;4.00;;
19836;SDS011;10079;55.740;37.662;2023-05-18T12:40:56;4.55;;;4.10;;
19836;SDS011;10079;55.740;37.662;2023-05-18T12:43:54;3.90;;;3.50;;
19836;SDS011;10079;55.740;37.662;2023-05-18T12:46:52;5.53;;;3.65;;
19836;SDS011;10079;55.740;37.662;2023-05-18T12:49:49;5.22;;;4.15;;
19836;SDS011;10079;55.740;37.662;2023-05-18T12:52:47;4.60;;;3.58;;
19836;SDS011;10079;55.740;37.662;2023-05-18T12:55:44;4.50;;;3.67;;
19836;SDS011;10079;55.740;37.662;2023-05-18T13:01:48;6.25;;;3.75;;
19836;SDS011;10079;55.740;37.662;2023-05-18T13:04:46;4.60;;;3.97;;
19836;SDS011;10079;55.740;37.662;2023-05-18T13:07:49;3.83;;;3.50;;
19836;SDS011;10079;55.740;37.662;2023-05-18T13:10:47;4.80;;;3.78;;
19836;SDS011;10079;55.740;37.662;2023-05-18T13:16:49;4.47;;;3.78;;
19836;SDS011;10079;55.740;37.662;2023-05-18T13:19:46;4.68;;;4.15;;
19836;SDS011;10079;55.740;37.662;2023-05-18T13:22:44;5.43;;;3.95;;
19836;SDS011;10079;55.740;37.662;2023-05-18T13:25:42;5.40;;;3.42;;
19836;SDS011;10079;55.740;37.662;2023-05-18T13:28:41;6.90;;;4.15;;
19836;SDS011;10079;55.740;37.662;2023-05-18T13:31:38;5.55;;;3.85;;
19836;SDS011;10079;55.740;37.662;2023-05-18T13:34:36;6.15;;;5.55;;
19836;SDS011;10079;55.740;37.662;2023-05-18T13:37:34;7.78;;;6.95;;
19836;SDS011;10079;55.740;37.662;2023-05-18T13:40:32;5.90;;;4.05;;
19836;SDS011;10079;55.740;37.662;2023-05-18T13:43:30;7.12;;;6.43;;
19836;SDS011;10079;55.740;37.662;2023-05-18T13:46:27;7.93;;;6.87;;
19836;SDS011;10079;55.740;37.662;2023-05-18T13:49:25;5.62;;;4.37;;
19836;SDS011;10079;55.740;37.662;2023-05-18T13:52:22;11.25;;;10.15;;
19836;SDS011;10079;55.740;37.662;2023-05-18T13:55:20;7.43;;;6.18;;
19836;SDS011;10079;55.740;37.662;2023-05-18T13:58:18;5.87;;;4.97;;
19836;SDS011;10079;55.740;37.662;2023-05-18T14:01:15;7.80;;;4.00;;
19836;SDS011;10079;55.740;37.662;2023-05-18T14:04:13;6.85;;;5.53;;
19836;SDS011;10079;55.740;37.662;2023-05-18T14:07:11;4.53;;;4.10;;
19836;SDS011;10079;55.740;37.662;2023-05-18T14:10:09;6.60;;;4.47;;
19836;SDS011;10079;55.740;37.662;2023-05-18T14:13:06;6.45;;;5.22;;
19836;SDS011;10079;55.740;37.662;2023-05-18T14:16:04;5.07;;;3.53;;
19836;SDS011;10079;55.740;37.662;2023-05-18T14:19:01;7.93;;;4.18;;
19836;SDS011;10079;55.740;37.662;2023-05-18T14:21:58;5.68;;;4.53;;
19836;SDS011;10079;55.740;37.662;2023-05-18T14:24:57;5.37;;;4.28;;
19836;SDS011;10079;55.740;37.662;2023-05-18T14:27:55;6.57;;;3.72;;
19836;SDS011;10079;55.740;37.662;2023-05-18T14:30:52;5.25;;;4.30;;
19836;SDS011;10079;55.740;37.662;2023-05-18T14:33:50;4.70;;;4.15;;
19836;SDS011;10079;55.740;37.662;2023-05-18T14:36:48;6.12;;;3.47;;
19836;SDS011;10079;55.740;37.662;2023-05-18T14:39:45;5.37;;;3.78;;
19836;SDS011;10079;55.740;37.662;2023-05-18T14:42:43;4.85;;;3.75;;
19836;SDS011;10079;55.740;37.662;2023-05-18T14:45:41;7.40;;;4.03;;
19836;SDS011;10079;55.740;37.662;2023-05-18T14:48:39;5.62;;;3.72;;
19836;SDS011;10079;55.740;37.662;2023-05-18T14:51:36;8.38;;;3.97;;
19836;SDS011;10079;55.740;37.662;2023-05-18T14:54:34;5.37;;;3.83;;
19836;SDS011;10079;55.740;37.662;2023-05-18T14:57:32;7.45;;;3.92;;
19836;SDS011;10079;55.740;37.662;2023-05-18T15:00:29;7.15;;;4.40;;
19836;SDS011;10079;55.740;37.662;2023-05-18T15:03:27;5.12;;;3.92;;
19836;SDS011;10079;55.740;37.662;2023-05-18T15:06:24;8.13;;;3.75;;
19836;SDS011;10079;55.740;37.662;2023-05-18T15:09:22;8.45;;;4.12;;
19836;SDS011;10079;55.740;37.662;2023-05-18T15:12:20;6.37;;;3.80;;
19836;SDS011;10079;55.740;37.662;2023-05-18T15:15:17;7.50;;;3.80;;
19836;SDS011;10079;55.740;37.662;2023-05-18T15:18:15;6.10;;;4.50;;
19836;SDS011;10079;55.740;37.662;2023-05-18T15:21:13;5.90;;;4.10;;
19836;SDS011;10079;55.740;37.662;2023-05-18T15:24:10;10.82;;;3.92;;
19836;SDS011;10079;55.740;37.662;2023-05-18T15:27:08;12.18;;;4.43;;
19836;SDS011;10079;55.740;37.662;2023-05-18T15:30:06;5.62;;;4.18;;
19836;SDS011;10079;55.740;37.662;2023-05-18T15:33:04;10.45;;;4.80;;
19836;SDS011;10079;55.740;37.662;2023-05-18T15:36:04;11.12;;;4.93;;
19836;SDS011;10079;55.740;37.662;2023-05-18T15:39:02;11.43;;;4.72;;
19836;SDS011;10079;55.740;37.662;2023-05-18T15:42:00;6.20;;;4.12;;
19836;SDS011;10079;55.740;37.662;2023-05-18T15:44:57;8.82;;;4.90;;
19836;SDS011;10079;55.740;37.662;2023-05-18T15:47:55;10.88;;;5.50;;
19836;SDS011;10079;55.740;37.662;2023-05-18T15:50:52;7.72;;;4.85;;
19836;SDS011;10079;55.740;37.662;2023-05-18T15:53:50;7.65;;;4.47;;
19836;SDS011;10079;55.740;37.662;2023-05-18T15:56:48;12.48;;;4.95;;
19836;SDS011;10079;55.740;37.662;2023-05-18T15:59:46;12.00;;;5.32;;
19836;SDS011;10079;55.740;37.662;2023-05-18T16:02:43;7.37;;;5.15;;
19836;SDS011;10079;55.740;37.662;2023-05-18T16:05:41;7.70;;;4.70;;
19836;SDS011;10079;55.740;37.662;2023-05-18T16:08:38;12.40;;;5.77;;
19836;SDS011;10079;55.740;37.662;2023-05-18T16:11:36;9.17;;;5.37;;
19836;SDS011;10079;55.740;37.662;2023-05-18T16:14:34;6.90;;;4.50;;
19836;SDS011;10079;55.740;37.662;2023-05-18T16:17:31;8.83;;;4.97;;
19836;SDS011;10079;55.740;37.662;2023-05-18T16:20:29;9.70;;;5.53;;
19836;SDS011;10079;55.740;37.662;2023-05-18T16:23:27;12.77;;;5.23;;
19836;SDS011;10079;55.740;37.662;2023-05-18T16:26:24;9.77;;;5.10;;
19836;SDS011;10079;55.740;37.662;2023-05-18T16:29:22;8.67;;;4.30;;
19836;SDS011;10079;55.740;37.662;2023-05-18T16:32:20;8.67;;;4.20;;
19836;SDS011;10079;55.740;37.662;2023-05-18T16:35:17;9.37;;;4.83;;
19836;SDS011;10079;55.740;37.662;2023-05-18T16:38:15;5.97;;;4.00;;
19836;SDS011;10079;55.740;37.662;2023-05-18T16:41:13;6.97;;;4.60;;
19836;SDS011;10079;55.740;37.662;2023-05-18T16:44:10;6.57;;;4.87;;
19836;SDS011;10079;55.740;37.662;2023-05-18T16:47:08;6.17;;;4.37;;
19836;SDS011;10079;55.740;37.662;2023-05-18T16:50:06;6.23;;;4.23;;
19836;SDS011;10079;55.740;37.662;2023-05-18T16:53:03;7.10;;;4.37;;
19836;SDS011;10079;55.740;37.662;2023-05-18T16:56:01;7.83;;;4.93;;
19836;SDS011;10079;55.740;37.662;2023-05-18T16:58:58;7.33;;;4.90;;
19836;SDS011;10079;55.740;37.662;2023-05-18T17:01:56;5.93;;;4.60;;
19836;SDS011;10079;55.740;37.662;2023-05-18T17:04:54;9.53;;;5.67;;
19836;SDS011;10079;55.740;37.662;2023-05-18T17:07:54;8.43;;;5.10;;
19836;SDS011;10079;55.740;37.662;2023-05-18T17:10:51;7.07;;;5.00;;
19836;SDS011;10079;55.740;37.662;2023-05-18T17:13:49;6.97;;;4.50;;
19836;SDS011;10079;55.740;37.662;2023-05-18T17:16:47;10.50;;;4.97;;
19836;SDS011;10079;55.740;37.662;2023-05-18T17:19:44;6.87;;;4.70;;
19836;SDS011;10079;55.740;37.662;2023-05-18T17:22:42;16.03;;;8.87;;
19836;SDS011;10079;55.740;37.662;2023-05-18T17:25:40;6.20;;;4.50;;
19836;SDS011;10079;55.740;37.662;2023-05-18T17:28:37;5.97;;;4.67;;
19836;SDS011;10079;55.740;37.662;2023-05-18T17:31:35;7.73;;;4.60;;
19836;SDS011;10079;55.740;37.662;2023-05-18T17:34:33;8.30;;;5.13;;
19836;SDS011;10079;55.740;37.662;2023-05-18T17:37:30;9.20;;;4.70;;
19836;SDS011;10079;55.740;37.662;2023-05-18T17:40:28;7.00;;;5.37;;
19836;SDS011;10079;55.740;37.662;2023-05-18T17:43:26;7.20;;;5.43;;
19836;SDS011;10079;55.740;37.662;2023-05-18T17:46:23;6.83;;;5.10;;
19836;SDS011;10079;55.740;37.662;2023-05-18T17:49:21;8.47;;;5.23;;
19836;SDS011;10079;55.740;37.662;2023-05-18T17:52:19;8.97;;;5.23;;
19836;SDS011;10079;55.740;37.662;2023-05-18T17:55:16;8.53;;;6.03;;
19836;SDS011;10079;55.740;37.662;2023-05-18T17:58:14;7.33;;;5.80;;
19836;SDS011;10079;55.740;37.662;2023-05-18T18:01:17;7.13;;;5.17;;
19836;SDS011;10079;55.740;37.662;2023-05-18T18:04:32;8.70;;;5.83;;
19836;SDS011;10079;55.740;37.662;2023-05-18T18:07:47;11.20;;;5.60;;
19836;SDS011;10079;55.740;37.662;2023-05-18T18:11:02;10.40;;;6.00;;
19836;SDS011;10079;55.740;37.662;2023-05-18T18:14:08;8.57;;;6.07;;
19836;SDS011;10079;55.740;37.662;2023-05-18T18:17:11;8.00;;;5.10;;
19836;SDS011;10079;55.740;37.662;2023-05-18T18:20:14;8.17;;;5.50;;
19836;SDS011;10079;55.740;37.662;2023-05-18T18:23:29;8.07;;;5.17;;
19836;SDS011;10079;55.740;37.662;2023-05-18T18:26:32;5.93;;;4.23;;
19836;SDS011;10079;55.740;37.662;2023-05-18T18:29:35;6.10;;;4.70;;
19836;SDS011;10079;55.740;37.662;2023-05-18T18:32:41;6.83;;;4.20;;
19836;SDS011;10079;55.740;37.662;2023-05-18T18:35:44;9.63;;;4.67;;
19836;SDS011;10079;55.740;37.662;2023-05-18T18:49:18;10.53;;;5.83;;
19836;SDS011;10079;55.740;37.662;2023-05-18T18:52:24;7.03;;;5.40;;
19836;SDS011;10079;55.740;37.662;2023-05-18T18:55:35;9.63;;;5.10;;
19836;SDS011;10079;55.740;37.662;2023-05-18T18:58:50;6.90;;;5.37;;
19836;SDS011;10079;55.740;37.662;2023-05-18T19:01:53;7.80;;;5.67;;
19836;SDS011;10079;55.740;37.662;2023-05-18T19:05:08;8.00;;;5.20;;
19836;SDS011;10079;55.740;37.662;2023-05-18T19:08:23;10.10;;;5.27;;
19836;SDS011;10079;55.740;37.662;2023-05-18T19:11:38;4.33;;;3.80;;
19836;SDS011;10079;55.740;37.662;2023-05-18T19:14:53;10.00;;;5.13;;
19836;SDS011;10079;55.740;37.662;2023-05-18T19:18:01;9.40;;;4.70;;
19836;SDS011;10079;55.740;37.662;2023-05-18T19:21:07;5.67;;;4.67;;
19836;SDS011;10079;55.740;37.662;2023-05-18T19:24:12;8.00;;;4.33;;
19836;SDS011;10079;55.740;37.662;2023-05-18T19:37:50;6.90;;;4.90;;
19836;SDS011;10079;55.740;37.662;2023-05-18T19:41:02;8.80;;;5.30;;
19836;SDS011;10079;55.740;37.662;2023-05-18T19:44:08;8.73;;;4.87;;
19836;SDS011;10079;55.740;37.662;2023-05-18T19:47:15;7.30;;;4.80;;
19836;SDS011;10079;55.740;37.662;2023-05-18T19:50:21;10.07;;;5.47;;
19836;SDS011;10079;55.740;37.662;2023-05-18T20:03:58;7.63;;;4.70;;
19836;SDS011;10079;55.740;37.662;2023-05-18T20:07:01;6.63;;;5.10;;
19836;SDS011;10079;55.740;37.662;2023-05-18T20:10:08;10.00;;;4.80;;
19836;SDS011;10079;55.740;37.662;2023-05-18T20:13:11;7.60;;;4.53;;
19836;SDS011;10079;55.740;37.662;2023-05-18T20:16:14;5.17;;;4.67;;
19836;SDS011;10079;55.740;37.662;2023-05-18T20:19:17;7.80;;;5.47;;